Time;durP1;ratioP1;P1;durP2;ratioP2;P2;SDS_P1;SDS_P2;PMS_P1;PMS_P2;Temp;Humidity;BMP_temperature;BMP_pressure;BME280_temperature;BME280_humidity;BME280_pressure;Samples;Min_cycle;Max_cycle;Signal;HPM_P1;HPM_P2
2023/08/15 00:00:11;;;;;;;4.38;3.35;;;21.70;99.90;;;;;;5014646;28;20084;-45
2023/08/15 00:02:57;;;;;;;4.72;3.17;;;21.70;99.90;;;;;;5007053;28;20562;-52
2023/08/15 00:05:43;;;;;;;4.68;3.00;;;21.60;99.90;;;;;;5014046;28;20407;-45
2023/08/15 00:08:29;;;;;;;3.72;3.15;;;21.60;99.90;;;;;;5014171;28;20029;-50
2023/08/15 00:11:15;;;;;;;5.07;3.20;;;21.60;99.90;;;;;;5003539;28;21453;-47
2023/08/15 00:14:01;;;;;;;5.28;3.38;;;21.50;99.90;;;;;;5012498;28;20617;-46
2023/08/15 00:16:47;;;;;;;4.45;3.35;;;21.50;99.90;;;;;;5002989;28;20557;-46
2023/08/15 00:19:33;;;;;;;3.50;3.20;;;21.50;99.90;;;;;;5011404;28;20108;-45
2023/08/15 00:22:19;;;;;;;4.75;3.08;;;21.50;99.90;;;;;;5012553;28;20035;-51
2023/08/15 00:25:05;;;;;;;4.82;3.50;;;21.50;99.90;;;;;;5011556;28;20034;-49
2023/08/15 00:27:51;;;;;;;6.05;3.00;;;21.40;99.90;;;;;;5012833;28;20115;-49
2023/08/15 00:30:36;;;;;;;4.20;3.00;;;21.40;99.90;;;;;;5012548;28;20030;-47
2023/08/15 00:33:22;;;;;;;6.60;3.13;;;21.40;99.90;;;;;;5011403;28;20030;-51
2023/08/15 00:36:08;;;;;;;5.13;2.90;;;21.40;99.90;;;;;;5010432;28;20022;-53
2023/08/15 00:38:54;;;;;;;4.40;3.10;;;21.40;99.90;;;;;;5010809;28;20049;-48
2023/08/15 00:41:40;;;;;;;6.00;3.10;;;21.30;99.90;;;;;;5011988;28;20717;-49
2023/08/15 00:44:26;;;;;;;3.63;2.80;;;21.40;99.90;;;;;;5011492;28;20029;-54
2023/08/15 00:47:13;;;;;;;3.58;2.72;;;21.40;99.90;;;;;;5009076;28;20391;-48
2023/08/15 00:50:01;;;;;;;6.93;2.85;;;21.40;99.90;;;;;;5012706;28;20034;-49
2023/08/15 00:52:48;;;;;;;3.90;2.65;;;21.40;99.90;;;;;;4993150;28;20018;-56
2023/08/15 00:55:35;;;;;;;6.20;3.10;;;21.40;99.90;;;;;;5001523;28;20517;-55
2023/08/15 00:58:21;;;;;;;4.43;2.60;;;21.40;99.90;;;;;;5013051;28;20034;-52
2023/08/15 01:01:14;;;;;;;4.93;3.00;;;21.30;99.90;;;;;;5013523;28;20057;-52
2023/08/15 01:04:01;;;;;;;4.82;2.78;;;21.30;99.90;;;;;;5011944;28;20033;-46
2023/08/15 01:06:48;;;;;;;5.47;3.00;;;21.20;99.90;;;;;;5013628;28;20030;-50
2023/08/15 01:09:35;;;;;;;4.53;3.25;;;21.20;99.90;;;;;;5013460;28;20102;-47
2023/08/15 01:12:32;;;;;;;4.20;3.00;;;21.20;99.90;;;;;;5012873;28;20030;-45
2023/08/15 01:15:26;;;;;;;5.10;2.80;;;21.20;99.90;;;;;;5013635;28;20029;-54
2023/08/15 01:18:17;;;;;;;4.60;2.90;;;21.20;99.90;;;;;;5012688;28;20395;-48
2023/08/15 01:21:04;;;;;;;5.30;3.10;;;21.30;99.90;;;;;;5012981;28;20399;-44
2023/08/15 01:23:51;;;;;;;4.18;2.72;;;21.20;99.90;;;;;;5013196;28;20072;-53
2023/08/15 01:26:37;;;;;;;7.78;3.35;;;21.30;99.90;;;;;;5010447;28;20464;-48
2023/08/15 01:29:23;;;;;;;4.65;3.33;;;21.30;99.90;;;;;;5011939;28;20029;-47
2023/08/15 01:32:40;;;;;;;8.38;3.35;;;21.30;99.90;;;;;;5004501;28;20411;-48
2023/08/15 01:35:33;;;;;;;6.68;3.55;;;21.30;99.90;;;;;;5012484;28;20022;-47
2023/08/15 01:38:32;;;;;;;7.63;3.63;;;21.30;99.90;;;;;;5012721;28;20033;-47
2023/08/15 01:41:22;;;;;;;6.38;3.65;;;21.20;99.90;;;;;;5011493;28;20032;-47
2023/08/15 01:44:11;;;;;;;7.00;3.25;;;21.20;99.90;;;;;;4998949;28;20045;-51
2023/08/15 01:47:00;;;;;;;4.85;3.42;;;21.00;99.90;;;;;;5012769;28;20037;-52
2023/08/15 01:49:46;;;;;;;5.60;3.92;;;21.00;99.90;;;;;;5012365;28;20438;-45
2023/08/15 01:52:32;;;;;;;5.72;3.28;;;21.00;99.90;;;;;;5011422;28;20065;-48
2023/08/15 01:55:18;;;;;;;7.07;3.60;;;20.90;99.90;;;;;;5011248;28;20034;-48
2023/08/15 01:58:03;;;;;;;5.10;3.50;;;20.90;99.90;;;;;;5012348;28;20473;-47
2023/08/15 02:00:49;;;;;;;5.50;3.47;;;20.90;99.90;;;;;;5010788;28;20486;-45
2023/08/15 02:03:35;;;;;;;4.25;3.22;;;21.00;99.90;;;;;;5002486;28;20037;-49
2023/08/15 02:06:21;;;;;;;7.38;3.67;;;21.00;99.90;;;;;;4995690;28;20069;-49
2023/08/15 02:09:07;;;;;;;6.63;4.18;;;21.10;99.90;;;;;;5003436;28;20027;-50
2023/08/15 02:11:53;;;;;;;7.53;4.13;;;21.10;99.90;;;;;;4993173;28;20057;-50
2023/08/15 02:14:39;;;;;;;5.00;3.72;;;21.10;99.90;;;;;;4993106;28;20022;-51
2023/08/15 02:17:25;;;;;;;5.75;3.88;;;21.20;99.90;;;;;;4978602;28;20507;-47
2023/08/15 02:20:11;;;;;;;6.53;4.47;;;21.20;99.90;;;;;;4992847;28;20030;-44
2023/08/15 02:22:57;;;;;;;6.47;4.00;;;21.10;99.90;;;;;;5010691;28;20030;-43
2023/08/15 02:25:43;;;;;;;7.13;4.63;;;21.10;99.90;;;;;;5010868;28;20033;-52
2023/08/15 02:28:31;;;;;;;7.07;4.55;;;21.00;99.90;;;;;;4997301;28;20060;-45
2023/08/15 02:31:17;;;;;;;7.13;4.45;;;21.00;99.90;;;;;;4997040;28;20164;-46
2023/08/15 02:34:03;;;;;;;5.88;5.00;;;20.90;99.90;;;;;;4976162;28;20137;-45
2023/08/15 02:36:48;;;;;;;5.10;4.60;;;21.00;99.90;;;;;;5012114;28;20034;-44
2023/08/15 02:39:34;;;;;;;8.15;5.18;;;21.00;99.90;;;;;;5011875;28;20042;-48
2023/08/15 02:42:20;;;;;;;7.88;5.63;;;21.00;99.90;;;;;;5012063;28;20113;-50
2023/08/15 02:45:07;;;;;;;7.28;5.00;;;20.90;99.90;;;;;;5012287;28;20026;-49
2023/08/15 02:47:53;;;;;;;7.95;5.40;;;20.90;99.90;;;;;;4998003;28;20030;-46
2023/08/15 02:50:39;;;;;;;7.35;5.28;;;20.90;99.90;;;;;;5012027;28;20042;-45
2023/08/15 02:53:25;;;;;;;8.15;5.30;;;20.90;99.90;;;;;;5015953;28;20037;-52
2023/08/15 02:56:10;;;;;;;5.97;5.30;;;20.90;99.90;;;;;;5015350;28;20065;-53
2023/08/15 02:58:56;;;;;;;7.60;5.20;;;21.00;99.90;;;;;;5015288;28;20037;-55
2023/08/15 03:01:42;;;;;;;5.40;4.88;;;21.00;99.90;;;;;;5016150;28;20034;-52
2023/08/15 03:04:28;;;;;;;6.93;5.50;;;21.00;99.90;;;;;;5010694;28;20117;-49
2023/08/15 03:07:14;;;;;;;7.13;5.63;;;21.00;99.90;;;;;;5012318;28;20037;-49
2023/08/15 03:10:00;;;;;;;8.57;6.07;;;20.90;99.90;;;;;;5015433;28;20053;-52
2023/08/15 03:12:48;;;;;;;7.53;4.93;;;20.90;99.90;;;;;;5015576;28;20030;-50
2023/08/15 03:15:35;;;;;;;6.78;5.30;;;20.90;99.90;;;;;;5014928;28;20032;-48
2023/08/15 03:18:21;;;;;;;5.75;5.15;;;20.90;99.90;;;;;;5015482;28;20025;-54
2023/08/15 03:21:09;;;;;;;5.65;4.80;;;20.90;99.90;;;;;;5014572;28;20065;-50
2023/08/15 03:23:54;;;;;;;7.10;5.70;;;20.90;99.90;;;;;;5015087;28;20026;-51
2023/08/15 03:26:42;;;;;;;6.13;5.53;;;20.90;99.90;;;;;;5015717;28;20486;-55
2023/08/15 03:29:28;;;;;;;5.80;5.20;;;20.90;99.90;;;;;;5015918;28;20501;-52
2023/08/15 03:32:13;;;;;;;5.97;5.32;;;20.90;99.90;;;;;;5015026;28;20422;-51
2023/08/15 03:34:59;;;;;;;7.60;5.55;;;20.90;99.90;;;;;;5014758;28;20526;-51
2023/08/15 03:37:45;;;;;;;6.18;5.20;;;20.90;99.90;;;;;;5014222;28;20382;-54
2023/08/15 03:40:31;;;;;;;5.85;5.25;;;20.90;99.90;;;;;;5007130;28;20540;-47
2023/08/15 03:43:17;;;;;;;8.15;6.35;;;20.80;99.90;;;;;;5015408;28;20042;-55
2023/08/15 03:46:04;;;;;;;6.65;5.72;;;20.80;99.90;;;;;;5000621;28;20034;-53
2023/08/15 03:48:50;;;;;;;6.72;5.82;;;20.70;99.90;;;;;;5014607;28;20030;-49
2023/08/15 03:51:36;;;;;;;7.00;5.85;;;20.70;99.90;;;;;;5014033;28;20040;-53
2023/08/15 03:54:22;;;;;;;7.82;6.05;;;20.70;99.90;;;;;;5014216;28;20025;-49
2023/08/15 03:57:08;;;;;;;7.53;6.20;;;20.70;99.90;;;;;;5013140;28;20030;-49
2023/08/15 03:59:54;;;;;;;9.70;6.20;;;20.70;99.90;;;;;;5014598;28;20029;-51
2023/08/15 04:02:40;;;;;;;6.00;5.40;;;20.70;99.90;;;;;;5013347;28;20528;-50
2023/08/15 04:05:26;;;;;;;7.55;6.20;;;20.60;99.90;;;;;;5003035;28;20032;-47
2023/08/15 04:08:12;;;;;;;7.55;5.80;;;20.60;99.90;;;;;;4994753;28;20031;-47
2023/08/15 04:11:00;;;;;;;8.20;6.10;;;20.60;99.90;;;;;;4994204;28;20076;-52
2023/08/15 04:13:46;;;;;;;7.80;7.00;;;20.60;99.90;;;;;;4980847;28;20042;-48
2023/08/15 04:16:32;;;;;;;6.40;5.68;;;20.60;99.90;;;;;;4993823;28;20023;-51
2023/08/15 04:19:18;;;;;;;6.80;6.10;;;20.60;99.90;;;;;;4981166;28;20031;-50
2023/08/15 04:22:04;;;;;;;9.85;6.45;;;20.70;99.90;;;;;;4994301;28;20040;-49
2023/08/15 04:24:50;;;;;;;7.65;6.43;;;20.70;99.90;;;;;;4994744;28;20030;-51
2023/08/15 04:27:37;;;;;;;7.80;6.85;;;20.70;99.90;;;;;;4994939;28;20042;-54
2023/08/15 04:30:23;;;;;;;8.07;6.63;;;20.70;99.90;;;;;;4994912;28;20035;-46
2023/08/15 04:33:09;;;;;;;10.00;7.53;;;20.70;99.90;;;;;;4994537;28;20034;-46
2023/08/15 04:35:55;;;;;;;8.25;6.47;;;20.70;99.90;;;;;;4995043;28;20026;-47
2023/08/15 04:38:41;;;;;;;8.07;6.43;;;20.70;99.90;;;;;;4995941;28;20750;-54
2023/08/15 04:41:26;;;;;;;8.45;7.40;;;20.70;99.90;;;;;;5009080;28;20045;-49
2023/08/15 04:44:12;;;;;;;12.93;9.20;;;20.80;99.90;;;;;;5005646;28;20501;-53
2023/08/15 04:46:58;;;;;;;8.75;7.82;;;20.80;99.90;;;;;;5013541;28;20026;-50
2023/08/15 04:49:45;;;;;;;8.30;7.10;;;20.80;99.90;;;;;;5014060;28;20033;-47
2023/08/15 04:52:31;;;;;;;7.25;6.07;;;20.80;99.90;;;;;;5013134;28;20030;-51
2023/08/15 04:55:17;;;;;;;7.68;6.88;;;20.90;99.90;;;;;;5013326;28;20026;-52
2023/08/15 04:58:03;;;;;;;8.45;6.82;;;20.80;99.90;;;;;;5013181;28;20034;-48
2023/08/15 05:00:49;;;;;;;10.48;7.07;;;20.90;99.90;;;;;;4999624;28;20109;-54
2023/08/15 05:03:35;;;;;;;7.85;7.05;;;21.00;99.90;;;;;;5012462;28;20060;-55
2023/08/15 05:06:21;;;;;;;7.03;6.40;;;21.10;99.90;;;;;;5004777;28;20073;-54
2023/08/15 05:09:07;;;;;;;8.20;6.63;;;21.10;99.90;;;;;;5005749;28;20033;-47
2023/08/15 05:11:53;;;;;;;8.68;7.45;;;21.10;99.90;;;;;;4999662;28;20037;-50
2023/08/15 05:14:39;;;;;;;8.95;7.70;;;21.20;99.90;;;;;;5012738;28;20508;-49
2023/08/15 05:17:25;;;;;;;6.55;5.90;;;21.30;99.90;;;;;;5009795;28;20420;-52
2023/08/15 05:20:12;;;;;;;8.90;7.32;;;21.30;99.90;;;;;;4993112;28;20030;-48
2023/08/15 05:22:58;;;;;;;6.68;6.07;;;21.30;99.90;;;;;;4993381;28;20034;-52
2023/08/15 05:25:45;;;;;;;8.75;7.85;;;21.30;99.90;;;;;;4992995;28;20081;-50
2023/08/15 05:28:31;;;;;;;8.43;7.40;;;21.40;99.90;;;;;;4994428;28;20489;-52
2023/08/15 05:31:17;;;;;;;10.35;7.85;;;21.40;99.90;;;;;;4993281;28;20100;-51
2023/08/15 05:34:03;;;;;;;9.98;6.85;;;21.40;99.90;;;;;;4979782;28;20613;-52
2023/08/15 05:36:49;;;;;;;7.72;6.38;;;21.50;99.90;;;;;;5002616;28;20034;-48
2023/08/15 05:39:35;;;;;;;8.30;6.25;;;21.50;99.90;;;;;;5009869;28;20034;-48
2023/08/15 05:42:21;;;;;;;10.40;6.70;;;21.60;99.90;;;;;;5012541;28;20030;-49
2023/08/15 05:45:07;;;;;;;6.47;5.43;;;21.70;99.90;;;;;;5012494;28;20502;-48
2023/08/15 05:47:53;;;;;;;7.15;5.38;;;21.70;99.90;;;;;;5012299;28;20022;-50
2023/08/15 05:50:39;;;;;;;8.90;5.90;;;21.70;99.90;;;;;;5011690;28;20040;-48
2023/08/15 05:53:25;;;;;;;10.20;5.60;;;21.80;99.90;;;;;;5003369;28;20027;-52
2023/08/15 05:56:11;;;;;;;7.82;5.32;;;21.80;99.90;;;;;;5012818;28;20026;-48
2023/08/15 05:58:57;;;;;;;9.57;6.18;;;21.90;99.90;;;;;;5011686;28;20499;-49
2023/08/15 06:01:45;;;;;;;5.97;5.38;;;22.00;99.90;;;;;;5011486;28;20471;-51
2023/08/15 06:04:31;;;;;;;7.20;4.85;;;22.00;99.90;;;;;;5011201;28;20081;-52
2023/08/15 06:07:17;;;;;;;7.50;5.15;;;22.10;99.90;;;;;;5010399;28;20410;-49
2023/08/15 06:10:03;;;;;;;6.93;5.28;;;22.10;99.90;;;;;;5004434;28;20391;-51
2023/08/15 06:12:49;;;;;;;37.95;29.98;;;22.20;99.90;;;;;;5011702;28;20033;-50
2023/08/15 06:15:35;;;;;;;24.48;17.95;;;22.30;99.90;;;;;;4998477;28;20054;-51
2023/08/15 06:18:21;;;;;;;17.42;14.02;;;22.30;99.90;;;;;;5012411;28;20022;-50
2023/08/15 06:21:07;;;;;;;14.02;9.48;;;22.40;99.90;;;;;;5011403;28;20030;-53
2023/08/15 06:23:53;;;;;;;8.73;7.82;;;22.50;99.90;;;;;;5012614;28;20068;-49
2023/08/15 06:26:39;;;;;;;11.10;7.82;;;22.50;99.90;;;;;;5009413;28;20040;-51
2023/08/15 06:29:25;;;;;;;7.82;7.03;;;22.60;99.90;;;;;;5003655;28;20034;-50
2023/08/15 06:32:27;;;;;;;6.63;5.93;;;22.60;99.90;;;;;;5009985;28;20113;-54
2023/08/15 06:35:16;;;;;;;7.35;5.88;;;22.70;99.90;;;;;;5010342;28;20155;-49
2023/08/15 06:38:02;;;;;;;6.90;6.20;;;22.80;99.90;;;;;;5007185;28;20026;-48
2023/08/15 06:40:49;;;;;;;7.45;6.22;;;22.80;99.90;;;;;;5009399;28;20096;-52
2023/08/15 06:43:35;;;;;;;7.05;5.97;;;22.90;99.90;;;;;;5009676;28;20541;-55
2023/08/15 06:46:21;;;;;;;10.02;6.60;;;22.90;99.90;;;;;;5010049;28;20038;-56
2023/08/15 06:49:07;;;;;;;7.97;6.82;;;22.80;99.90;;;;;;5006921;28;20029;-58
2023/08/15 06:51:53;;;;;;;9.88;8.88;;;22.80;99.90;;;;;;5011433;28;20034;-56
2023/08/15 06:54:39;;;;;;;7.82;7.03;;;22.80;99.90;;;;;;5010630;28;20058;-56
2023/08/15 06:57:25;;;;;;;7.45;6.40;;;22.90;99.90;;;;;;5010126;28;20128;-56
2023/08/15 07:00:12;;;;;;;8.63;6.88;;;23.10;99.90;;;;;;5010083;28;20379;-58
2023/08/15 07:02:58;;;;;;;7.30;6.35;;;23.30;99.90;;;;;;5007428;28;20073;-56
2023/08/15 07:05:44;;;;;;;9.07;6.20;;;23.30;99.90;;;;;;5010018;28;20025;-55
2023/08/15 07:08:31;;;;;;;9.55;5.88;;;23.50;99.90;;;;;;5010409;28;20029;-55
2023/08/15 07:11:17;;;;;;;6.85;6.15;;;23.50;99.90;;;;;;5008260;28;20394;-56
2023/08/15 07:14:03;;;;;;;6.90;6.20;;;23.50;99.90;;;;;;5007395;28;20076;-55
2023/08/15 07:16:49;;;;;;;6.82;5.63;;;23.50;99.90;;;;;;5005309;28;20030;-57
2023/08/15 07:19:35;;;;;;;9.93;6.32;;;23.30;99.90;;;;;;5010386;28;20026;-57
2023/08/15 07:22:21;;;;;;;8.13;5.55;;;23.30;99.90;;;;;;5008779;28;20041;-57
2023/08/15 07:25:08;;;;;;;6.72;5.80;;;23.10;99.90;;;;;;5007883;28;20258;-56
2023/08/15 07:27:54;;;;;;;9.82;6.20;;;22.70;99.90;;;;;;5008440;28;20038;-52
2023/08/15 07:30:41;;;;;;;9.02;6.93;;;22.70;99.90;;;;;;5004880;28;20029;-56
2023/08/15 07:33:27;;;;;;;9.15;6.13;;;22.60;99.90;;;;;;5008575;28;20041;-55
2023/08/15 07:36:13;;;;;;;6.95;6.25;;;22.80;99.90;;;;;;5008341;28;20030;-58
2023/08/15 07:38:59;;;;;;;11.27;7.30;;;22.70;99.90;;;;;;5010476;28;20436;-57
2023/08/15 07:41:45;;;;;;;7.70;6.90;;;22.80;99.90;;;;;;5013300;28;20037;-55
2023/08/15 07:44:31;;;;;;;9.30;7.15;;;22.90;99.90;;;;;;5015169;28;20046;-54
2023/08/15 07:47:17;;;;;;;8.68;6.03;;;23.00;99.90;;;;;;5014850;28;20593;-53
2023/08/15 07:50:17;;;;;;;8.43;7.20;;;23.20;99.90;;;;;;5014701;28;20664;-48
2023/08/15 07:53:03;;;;;;;6.78;5.30;;;23.20;99.90;;;;;;5014820;28;20033;-55
2023/08/15 07:55:51;;;;;;;6.75;5.95;;;23.30;99.90;;;;;;5013681;28;20030;-48
2023/08/15 07:58:37;;;;;;;7.95;6.45;;;23.40;99.90;;;;;;5014415;28;20026;-52
2023/08/15 08:01:22;;;;;;;7.40;6.35;;;23.50;99.90;;;;;;5000001;28;20137;-47
2023/08/15 08:04:08;;;;;;;11.93;8.15;;;23.60;99.90;;;;;;5015303;28;20465;-52
2023/08/15 08:06:54;;;;;;;14.07;8.45;;;23.60;99.90;;;;;;5014250;28;20442;-50
2023/08/15 08:09:40;;;;;;;8.48;6.93;;;23.50;99.90;;;;;;5013704;28;20491;-52
2023/08/15 08:12:27;;;;;;;11.82;7.60;;;23.60;99.90;;;;;;5013042;28;20033;-48
2023/08/15 08:15:13;;;;;;;9.52;7.13;;;23.70;99.90;;;;;;5014323;28;20022;-45
2023/08/15 08:17:59;;;;;;;9.13;7.40;;;23.70;99.90;;;;;;5014111;28;20468;-51
2023/08/15 08:20:45;;;;;;;8.90;6.70;;;23.70;99.90;;;;;;5012905;28;20080;-45
2023/08/15 08:23:31;;;;;;;8.82;6.35;;;23.60;99.90;;;;;;5012911;28;20113;-45
2023/08/15 08:26:17;;;;;;;7.75;6.30;;;23.60;99.90;;;;;;5014423;28;20038;-47
2023/08/15 08:29:03;;;;;;;12.70;7.20;;;23.50;99.90;;;;;;5014529;28;20030;-51
2023/08/15 08:31:49;;;;;;;8.75;7.30;;;23.40;99.90;;;;;;5015493;28;20116;-53
2023/08/15 08:34:35;;;;;;;10.80;6.65;;;23.30;99.90;;;;;;5014188;28;20385;-48
2023/08/15 08:37:21;;;;;;;8.23;6.88;;;23.20;99.90;;;;;;5013528;28;20018;-49
2023/08/15 08:40:09;;;;;;;10.23;7.25;;;23.20;99.90;;;;;;5013126;28;20022;-51
2023/08/15 08:42:55;;;;;;;9.48;6.85;;;23.20;99.90;;;;;;5013859;28;20458;-52
2023/08/15 08:45:48;;;;;;;8.75;6.63;;;23.10;99.90;;;;;;5013029;28;20414;-52
2023/08/15 08:48:35;;;;;;;36.90;33.10;;;23.20;99.90;;;;;;4998362;28;20022;-52
2023/08/15 08:51:22;;;;;;;9.82;7.30;;;23.30;99.90;;;;;;4998191;28;20034;-46
2023/08/15 08:54:08;;;;;;;13.00;6.97;;;23.40;99.90;;;;;;4985270;28;20037;-49
2023/08/15 08:56:56;;;;;;;8.30;6.80;;;23.30;99.90;;;;;;5012621;28;20026;-50
2023/08/15 08:59:43;;;;;;;8.85;6.95;;;23.40;99.90;;;;;;5013612;28;20022;-49
2023/08/15 09:02:29;;;;;;;7.38;6.50;;;23.40;99.90;;;;;;5012433;28;20061;-57
2023/08/15 09:05:16;;;;;;;10.85;6.90;;;23.50;99.90;;;;;;4998347;28;20029;-55
2023/08/15 09:08:02;;;;;;;9.90;7.00;;;23.40;99.90;;;;;;5012501;28;20049;-53
2023/08/15 09:10:48;;;;;;;7.65;6.85;;;23.50;99.90;;;;;;5012305;28;20510;-53
2023/08/15 09:13:34;;;;;;;10.10;7.28;;;23.50;99.90;;;;;;5011287;28;20030;-54
2023/08/15 09:16:20;;;;;;;8.02;7.20;;;23.50;99.90;;;;;;5011506;28;20089;-48
2023/08/15 09:19:07;;;;;;;9.32;7.50;;;23.60;99.90;;;;;;4998562;28;20030;-54
2023/08/15 09:21:53;;;;;;;7.10;6.43;;;23.70;99.90;;;;;;5012986;28;20041;-55
2023/08/15 09:24:42;;;;;;;21.15;18.92;;;23.80;99.90;;;;;;5012364;28;20026;-50
2023/08/15 09:27:28;;;;;;;12.88;11.60;;;23.80;99.90;;;;;;5012863;28;20033;-52
2023/08/15 09:30:16;;;;;;;10.27;9.25;;;24.00;99.90;;;;;;5012442;28;20040;-47
2023/08/15 09:33:05;;;;;;;9.65;7.55;;;24.30;99.90;;;;;;5012698;28;20457;-53
2023/08/15 09:35:51;;;;;;;8.02;7.05;;;24.50;99.90;;;;;;5012138;28;20026;-51
2023/08/15 09:38:38;;;;;;;7.45;6.65;;;24.80;99.90;;;;;;5012557;28;20092;-51
2023/08/15 09:41:25;;;;;;;7.60;6.32;;;24.90;99.90;;;;;;5011946;28;20402;-49
2023/08/15 09:44:11;;;;;;;9.00;6.93;;;25.10;99.90;;;;;;5011631;28;20030;-54
2023/08/15 09:47:00;;;;;;;8.35;6.25;;;25.20;99.90;;;;;;4997728;28;20102;-46
2023/08/15 09:49:50;;;;;;;8.10;6.35;;;25.40;99.90;;;;;;5012005;28;20025;-45
2023/08/15 09:52:42;;;;;;;8.60;6.22;;;25.50;99.90;;;;;;5011545;28;20057;-47
2023/08/15 09:55:28;;;;;;;9.85;6.70;;;25.60;99.90;;;;;;4997749;28;20036;-47
2023/08/15 09:58:16;;;;;;;6.60;6.03;;;25.60;99.90;;;;;;5012238;28;20026;-46
2023/08/15 10:01:05;;;;;;;10.05;6.45;;;25.80;99.90;;;;;;5011811;28;20018;-47
2023/08/15 10:03:53;;;;;;;10.15;7.25;;;25.90;99.90;;;;;;5012364;28;20034;-54
2023/08/15 10:06:42;;;;;;;6.05;5.45;;;26.00;99.90;;;;;;5012120;28;20049;-49
2023/08/15 10:09:32;;;;;;;6.53;5.75;;;26.10;99.90;;;;;;5012296;28;20037;-51
2023/08/15 10:12:19;;;;;;;6.70;5.78;;;26.10;99.90;;;;;;5012329;28;20038;-49
2023/08/15 10:15:09;;;;;;;6.45;5.68;;;26.30;99.90;;;;;;4998201;28;20057;-49
2023/08/15 10:17:57;;;;;;;8.98;6.45;;;26.50;99.90;;;;;;5011967;28;20022;-50
2023/08/15 10:20:50;;;;;;;8.10;6.32;;;26.60;99.90;;;;;;5011912;28;20022;-46
2023/08/15 10:23:37;;;;;;;8.98;6.07;;;26.70;99.90;;;;;;5012431;28;20513;-46
2023/08/15 10:26:23;;;;;;;10.13;5.97;;;26.80;99.90;;;;;;5011155;28;20113;-49
2023/08/15 10:29:10;;;;;;;8.48;6.00;;;26.90;99.90;;;;;;4998965;28;20538;-55
2023/08/15 10:32:00;;;;;;;7.10;6.20;;;26.70;99.90;;;;;;5009569;28;20058;-57
2023/08/15 10:34:52;;;;;;;6.35;5.75;;;26.70;99.90;;;;;;5010492;28;20104;-57
2023/08/15 10:37:41;;;;;;;9.68;5.72;;;26.70;99.90;;;;;;5010899;28;20105;-51
2023/08/15 10:41:00;;;;;;;7.50;5.60;;;26.90;99.90;;;;;;5011748;28;20061;-58
2023/08/15 10:43:52;;;;;;;7.43;5.70;;;27.10;99.90;;;;;;5011792;28;20387;-55
2023/08/15 10:46:39;;;;;;;8.02;5.47;;;27.20;99.90;;;;;;5011268;28;20026;-58
2023/08/15 10:49:25;;;;;;;7.00;5.57;;;27.30;99.90;;;;;;5011468;28;20030;-55
2023/08/15 10:52:11;;;;;;;8.65;5.90;;;27.30;99.90;;;;;;5010396;28;20523;-54
2023/08/15 10:54:59;;;;;;;6.40;5.40;;;27.30;99.90;;;;;;5010108;28;20050;-50
2023/08/15 10:57:45;;;;;;;6.47;5.88;;;27.20;99.90;;;;;;5011542;28;20026;-55
2023/08/15 11:00:32;;;;;;;8.00;6.35;;;27.30;99.90;;;;;;5011138;28;20026;-59
2023/08/15 11:03:20;;;;;;;11.25;6.35;;;27.40;99.90;;;;;;5010585;28;20100;-52
2023/08/15 11:06:11;;;;;;;7.65;5.70;;;27.40;99.90;;;;;;5010818;28;20018;-56
2023/08/15 11:08:58;;;;;;;7.97;6.50;;;27.50;99.90;;;;;;5013025;28;20038;-52
2023/08/15 11:11:45;;;;;;;9.02;6.78;;;27.60;99.90;;;;;;5012119;28;20111;-47
2023/08/15 11:14:32;;;;;;;9.52;6.05;;;27.70;99.90;;;;;;5014440;28;20018;-47
2023/08/15 11:17:18;;;;;;;6.22;5.63;;;27.70;99.90;;;;;;5014111;28;20392;-49
2023/08/15 11:20:05;;;;;;;8.27;6.20;;;27.80;99.90;;;;;;5001006;28;20026;-47
2023/08/15 11:22:56;;;;;;;9.95;6.05;;;27.80;99.90;;;;;;5015202;28;20117;-45
2023/08/15 11:25:42;;;;;;;6.90;5.65;;;27.80;99.90;;;;;;5014968;28;20041;-54
2023/08/15 11:28:28;;;;;;;9.02;5.72;;;27.90;99.90;;;;;;5001059;28;20026;-48
2023/08/15 11:31:16;;;;;;;7.63;6.18;;;28.00;99.90;;;;;;5014087;28;20052;-50
2023/08/15 11:34:03;;;;;;;6.55;5.45;;;28.00;99.90;;;;;;5014143;28;20112;-53
2023/08/15 11:36:49;;;;;;;8.38;5.88;;;28.10;99.90;;;;;;5015029;28;20041;-54
2023/08/15 11:39:35;;;;;;;6.88;5.65;;;28.00;99.90;;;;;;5014802;28;20022;-47
2023/08/15 11:42:22;;;;;;;7.25;6.03;;;28.10;99.90;;;;;;5013378;28;20120;-50
2023/08/15 11:45:10;;;;;;;7.20;5.70;;;28.20;99.90;;;;;;5014606;28;20033;-47
2023/08/15 11:48:04;;;;;;;9.68;5.68;;;28.30;99.90;;;;;;5000948;28;20104;-53
2023/08/15 11:50:52;;;;;;;7.18;5.25;;;28.20;99.90;;;;;;5013778;28;20042;-50
2023/08/15 11:53:47;;;;;;;10.93;5.80;;;28.20;99.90;;;;;;5013828;28;20414;-53
2023/08/15 11:56:52;;;;;;;8.05;7.22;;;28.30;99.90;;;;;;5013393;28;20034;-51
2023/08/15 11:59:38;;;;;;;10.07;5.00;;;28.40;99.30;;;;;;5013653;28;20047;-50
2023/08/15 12:02:24;;;;;;;5.68;5.18;;;28.60;99.20;;;;;;5014642;28;20037;-48
2023/08/15 12:05:15;;;;;;;6.93;5.07;;;28.50;99.10;;;;;;5014917;28;20041;-51
2023/08/15 12:08:01;;;;;;;6.43;5.10;;;28.60;99.40;;;;;;5014402;28;20033;-50
2023/08/15 12:10:47;;;;;;;9.00;5.00;;;28.70;99.60;;;;;;5014509;28;20461;-51
2023/08/15 12:13:40;;;;;;;5.15;4.65;;;28.80;99.80;;;;;;5014510;28;20026;-52
2023/08/15 12:16:26;;;;;;;5.43;4.93;;;29.00;99.70;;;;;;5013892;28;20076;-50
2023/08/15 12:19:13;;;;;;;5.97;4.88;;;29.00;98.50;;;;;;5000894;28;20030;-48
2023/08/15 12:21:59;;;;;;;6.13;5.07;;;28.90;98.50;;;;;;5014424;28;20037;-51
2023/08/15 12:24:45;;;;;;;5.57;4.90;;;28.70;98.90;;;;;;5013696;28;20030;-54
2023/08/15 12:27:31;;;;;;;5.32;4.82;;;28.70;99.40;;;;;;4999994;28;20040;-49
2023/08/15 12:30:19;;;;;;;5.78;5.18;;;28.60;99.40;;;;;;5012913;28;20030;-49
2023/08/15 12:33:05;;;;;;;7.28;5.25;;;28.70;99.50;;;;;;5014223;28;20069;-47
2023/08/15 12:35:51;;;;;;;6.22;5.40;;;28.90;99.50;;;;;;5014242;28;20026;-54
2023/08/15 12:38:37;;;;;;;7.05;4.88;;;29.10;99.60;;;;;;5014378;28;20076;-53
2023/08/15 12:41:23;;;;;;;6.28;5.00;;;29.10;99.00;;;;;;5013401;28;20545;-53
2023/08/15 12:44:09;;;;;;;5.63;4.63;;;29.30;99.10;;;;;;5014321;28;20111;-49
2023/08/15 12:46:55;;;;;;;7.03;5.20;;;29.50;98.60;;;;;;5013668;28;20030;-52
2023/08/15 12:49:41;;;;;;;5.97;5.10;;;29.60;98.20;;;;;;5014211;28;20561;-49
2023/08/15 12:52:27;;;;;;;5.40;4.90;;;29.90;97.80;;;;;;5013915;28;20442;-49
2023/08/15 12:55:13;;;;;;;6.18;4.72;;;29.90;97.10;;;;;;5014159;28;20026;-50
2023/08/15 12:58:00;;;;;;;6.25;4.40;;;30.00;97.40;;;;;;5013639;28;20026;-49
2023/08/15 13:00:48;;;;;;;5.90;4.63;;;30.40;97.40;;;;;;5013642;28;20026;-49
2023/08/15 13:03:34;;;;;;;5.45;4.55;;;30.50;95.70;;;;;;5013494;28;20057;-48
2023/08/15 13:06:20;;;;;;;6.00;4.30;;;30.60;95.10;;;;;;5013475;28;20038;-54
2023/08/15 13:09:07;;;;;;;4.70;4.05;;;30.40;95.70;;;;;;5013599;28;20037;-48
2023/08/15 13:11:53;;;;;;;5.47;4.22;;;30.40;94.80;;;;;;5013267;28;20022;-48
2023/08/15 13:14:39;;;;;;;4.72;4.22;;;30.20;95.00;;;;;;5013504;28;20033;-51
2023/08/15 13:17:25;;;;;;;4.78;4.10;;;30.20;95.40;;;;;;5012880;28;20060;-52
2023/08/15 13:20:11;;;;;;;6.88;4.07;;;30.00;94.90;;;;;;5013471;28;20033;-53
2023/08/15 13:22:57;;;;;;;4.63;4.20;;;29.90;95.10;;;;;;5012850;28;20511;-49
2023/08/15 13:25:44;;;;;;;5.75;4.38;;;29.80;95.40;;;;;;5012721;28;20030;-51
2023/08/15 13:28:30;;;;;;;6.63;4.60;;;29.70;95.60;;;;;;5012870;28;20410;-47
2023/08/15 13:31:16;;;;;;;7.55;4.20;;;29.60;95.50;;;;;;5012423;28;20022;-48
2023/08/15 13:34:02;;;;;;;5.22;3.95;;;29.50;95.50;;;;;;5013990;28;20091;-55
2023/08/15 13:36:48;;;;;;;4.40;3.83;;;29.50;94.90;;;;;;5012754;28;20124;-51
2023/08/15 13:39:34;;;;;;;5.78;4.05;;;29.40;95.00;;;;;;5013177;28;20026;-51
2023/08/15 13:42:20;;;;;;;4.38;3.97;;;29.30;95.40;;;;;;5012294;28;20040;-53
2023/08/15 13:45:07;;;;;;;6.53;4.00;;;29.10;95.80;;;;;;5013025;28;20034;-51
2023/08/15 13:47:53;;;;;;;4.80;4.10;;;29.00;96.20;;;;;;5012610;28;20058;-52
2023/08/15 13:50:39;;;;;;;5.97;4.30;;;28.90;96.60;;;;;;5013242;28;20117;-50
2023/08/15 13:53:25;;;;;;;5.20;4.00;;;28.80;96.80;;;;;;5012715;28;20038;-50
2023/08/15 13:56:11;;;;;;;5.10;4.63;;;28.70;97.60;;;;;;5012427;28;20108;-53
2023/08/15 13:58:57;;;;;;;6.75;4.88;;;28.60;97.70;;;;;;5012004;28;20101;-50
2023/08/15 14:01:44;;;;;;;4.72;4.03;;;28.50;97.70;;;;;;5012241;28;20401;-51
2023/08/15 14:04:31;;;;;;;5.18;3.58;;;28.50;96.70;;;;;;5012611;28;20411;-49
2023/08/15 14:07:17;;;;;;;5.50;3.67;;;28.50;95.30;;;;;;5012427;28;20032;-48
2023/08/15 14:10:03;;;;;;;4.00;3.55;;;28.50;95.80;;;;;;5012827;28;20076;-51
2023/08/15 14:12:49;;;;;;;3.45;2.85;;;28.60;96.40;;;;;;5012003;28;20038;-51
2023/08/15 14:15:36;;;;;;;3.72;3.20;;;28.80;95.20;;;;;;5011937;28;20041;-49
2023/08/15 14:18:22;;;;;;;5.65;3.10;;;29.10;94.70;;;;;;5011100;28;20077;-50
2023/08/15 14:21:10;;;;;;;3.70;3.20;;;29.40;94.20;;;;;;5012447;28;20084;-50
2023/08/15 14:23:56;;;;;;;3.17;2.83;;;29.40;93.70;;;;;;5016412;28;20415;-51
2023/08/15 14:26:42;;;;;;;5.22;2.85;;;29.50;93.60;;;;;;5011335;28;20116;-52